Hodgdon, Maine
Current Conditions -  °F | °C
As of 6:53 AM on Thursday 27 Nov 2014 (Local Time) from KHUL Reporting Station
Haze Haze  
Wind Chill: 12°   Ceiling: 1000
Heat Index: 25°   Visibility: 1mi
Dew Point: 21°   Wind: 16mph
Humidity: 85%   Direction: 360°N
Pressure: 29.72"   Gusts: 23mph
Location:  46.1163°N, 67.9329°W
Report Text: KHUL 271153Z AUTO 36014G20KT 1SM BR VV010 M04/M06 A2972 RMK AO2 SLP072 60003 70019 T10391061 11028 21039 56013 PWINO FZRANO $
Loading
Personal Weather Stations






























Interactive Weather Map New forecast layout! Learn more

10-Day Weather Forecast

Advertisements
Track Severe Weather on mobile